Terminal Aerodrome Forecast
Issued by NWS St Louis, MO

Home | Current Version | Previous Version | Text Only | Print | Product List | Glossary On
Versions: 1 2 3 4 5 6 7 8 9 10 11 12 13 14 15 16 17 18 19 20 21 22 23
956
FTUS43 KLSX 041741
TAFCOU
TAF
KCOU 041741Z 0418/0518 24006KT P6SM OVC007
      TEMPO 0418/0419 6SM -SN BR
     FM042100 27008KT P6SM OVC010
     FM050100 27005KT P6SM SCT015
     FM050900 VRB04KT 4SM BR SKC
     FM051500 15008KT P6SM SKC=

USA.gov is the U.S. government's official web portal to all federal, state and local government web resources and services.